Recycle, Texas
Current Conditions -  °F | °C
As of 2:35 AM on Friday 24 Oct 2014 (Local Time) from KPEZ Reporting Station
Clear Clear  
Wind Chill: 61°   Ceiling: Unl
Heat Index: 61°   Visibility: 10mi
Dew Point: 55°   Wind: 0mph
Humidity: 81%   Direction: NA
Pressure: 30.13"   Gusts: NA
Location:  29.0306°N, 98.0993°W
Report Text: KPEZ 240735Z AUTO 00000KT 10SM CLR 16/13 A3013 RMK AO2 T01600127
Loading
Personal Weather Stations






























Interactive Weather Map New forecast layout! Learn more

10-Day Weather Forecast

Advertisements
Track Severe Weather on mobile